Time;durP1;ratioP1;P1;durP2;ratioP2;P2;SDS_P1;SDS_P2;PMS_P1;PMS_P2;Temp;Humidity;BMP_temperature;BMP_pressure;BME280_temperature;BME280_humidity;BME280_pressure;Samples;Min_cycle;Max_cycle;Signal;HPM_P1;HPM_P2
2021/09/24 10:05:51;;;;;;;60.97;31.45;;;15.30;99.90;;;;;;5070698;28;21188;-75
2021/09/24 10:08:28;;;;;;;53.97;32.38;;;15.30;99.90;;;;;;5069363;28;20191;-73
2021/09/24 10:11:11;;;;;;;55.35;32.25;;;15.40;99.90;;;;;;5070621;28;20176;-74
2021/09/24 10:13:49;;;;;;;46.55;30.50;;;15.50;99.90;;;;;;5070593;28;20187;-76
2021/09/24 10:16:15;;;;;;;43.35;29.33;;;15.60;99.90;;;;;;5069369;28;20168;-76
2021/09/24 10:18:41;;;;;;;46.72;29.00;;;15.70;99.90;;;;;;5069128;28;20667;-76
2021/09/24 10:21:06;;;;;;;41.58;26.55;;;15.80;99.90;;;;;;5070387;28;20175;-77
2021/09/24 10:23:32;;;;;;;39.92;25.52;;;15.70;99.90;;;;;;5070302;28;20176;-76
2021/09/24 10:26:02;;;;;;;34.70;25.35;;;15.60;99.90;;;;;;5070197;28;20208;-76
2021/09/24 10:28:32;;;;;;;38.65;25.02;;;15.80;99.90;;;;;;5070331;28;20210;-76
2021/09/24 10:31:00;;;;;;;38.00;24.25;;;16.00;99.90;;;;;;5070173;28;20161;-78
2021/09/24 10:33:46;;;;;;;34.95;25.10;;;16.10;99.90;;;;;;5070194;28;20164;-77
2021/09/24 10:36:31;;;;;;;34.45;23.60;;;16.10;99.90;;;;;;5068918;28;20569;-82
2021/09/24 10:38:57;;;;;;;32.00;23.15;;;16.20;99.90;;;;;;5069969;28;20169;-78
2021/09/24 10:41:23;;;;;;;29.80;21.38;;;16.20;99.90;;;;;;5070024;28;20172;-77
2021/09/24 10:43:51;;;;;;;28.40;21.58;;;16.20;99.90;;;;;;5069850;28;20192;-77
2021/09/24 10:46:37;;;;;;;25.08;19.20;;;16.40;99.90;;;;;;5069914;28;20169;-76
2021/09/24 10:49:19;;;;;;;24.95;20.25;;;16.60;99.90;;;;;;5069825;28;20218;-76
2021/09/24 10:52:08;;;;;;;26.33;19.33;;;16.60;99.90;;;;;;5068699;28;20495;-76
2021/09/24 10:54:55;;;;;;;25.60;17.65;;;16.70;99.90;;;;;;5069764;28;20176;-76
2021/09/24 10:57:22;;;;;;;22.33;17.55;;;16.80;99.90;;;;;;5069784;28;20557;-84
2021/09/24 10:59:47;;;;;;;26.05;16.88;;;16.80;99.90;;;;;;5069619;28;20226;-83
2021/09/24 11:02:39;;;;;;;19.52;15.98;;;16.80;99.90;;;;;;5068237;28;20184;-81
2021/09/24 11:05:07;;;;;;;19.75;15.48;;;16.80;99.90;;;;;;5069261;28;20212;-80
2021/09/24 11:07:34;;;;;;;18.90;15.50;;;16.80;99.90;;;;;;5069513;28;20275;-83
2021/09/24 11:10:00;;;;;;;17.52;14.45;;;16.90;99.90;;;;;;5069375;28;20167;-83
2021/09/24 11:12:26;;;;;;;25.42;14.38;;;16.90;99.90;;;;;;5069396;28;20626;-87
2021/09/24 11:15:13;;;;;;;18.15;13.95;;;17.00;99.90;;;;;;5069262;28;20177;-85
2021/09/24 11:17:47;;;;;;;14.95;13.45;;;17.00;99.90;;;;;;5054659;28;20181;-86
2021/09/24 11:20:28;;;;;;;18.67;13.10;;;17.10;99.90;;;;;;5054729;28;20177;-84
2021/09/24 11:22:54;;;;;;;16.85;12.75;;;17.10;99.90;;;;;;5055868;28;20335;-85
2021/09/24 11:25:20;;;;;;;15.45;13.75;;;17.10;99.90;;;;;;5055702;28;20733;-84
2021/09/24 11:27:47;;;;;;;19.00;12.63;;;17.00;99.90;;;;;;5055873;28;20201;-85
2021/09/24 11:30:19;;;;;;;13.63;12.15;;;17.10;99.90;;;;;;5055741;28;20169;-85
2021/09/24 11:32:50;;;;;;;17.02;12.38;;;17.10;99.90;;;;;;5054485;28;20189;-74
2021/09/24 11:35:39;;;;;;;14.10;11.82;;;17.10;99.90;;;;;;5055771;28;20169;-74
2021/09/24 11:38:18;;;;;;;15.23;12.02;;;17.10;99.90;;;;;;5055370;28;20642;-76
2021/09/24 11:40:53;;;;;;;12.25;11.10;;;17.20;99.90;;;;;;5055596;28;20208;-75
2021/09/24 11:43:22;;;;;;;22.38;13.38;;;17.20;99.90;;;;;;5055588;28;20168;-76
2021/09/24 11:45:48;;;;;;;15.32;11.32;;;17.30;99.90;;;;;;5055429;28;20729;-76
2021/09/24 11:48:14;;;;;;;14.07;11.27;;;17.30;99.90;;;;;;5055475;28;20260;-75
2021/09/24 11:50:39;;;;;;;15.68;11.13;;;17.20;99.90;;;;;;5055488;28;20165;-76
2021/09/24 11:53:12;;;;;;;17.30;11.45;;;17.30;99.90;;;;;;5055365;28;20165;-76
2021/09/24 11:55:44;;;;;;;13.23;11.93;;;17.30;99.90;;;;;;5054072;28;20212;-77
2021/09/24 11:58:13;;;;;;;15.02;13.23;;;17.40;99.90;;;;;;5054014;28;20177;-77
2021/09/24 12:00:46;;;;;;;13.57;12.20;;;17.30;99.90;;;;;;5055219;28;20219;-77
2021/09/24 12:03:20;;;;;;;16.17;13.05;;;17.30;99.90;;;;;;5055212;28;20165;-77
2021/09/24 12:06:06;;;;;;;19.88;11.88;;;17.20;99.90;;;;;;5054829;28;20220;-77
2021/09/24 12:08:44;;;;;;;18.17;13.88;;;17.20;99.90;;;;;;5055207;28;20184;-77
2021/09/24 12:11:13;;;;;;;17.30;13.15;;;17.20;99.90;;;;;;5054978;28;20219;-77
2021/09/24 12:14:02;;;;;;;14.88;13.38;;;17.30;99.90;;;;;;5054996;28;20215;-77
2021/09/24 12:16:42;;;;;;;16.50;13.05;;;17.40;99.90;;;;;;5054947;28;20169;-77
2021/09/24 12:19:09;;;;;;;19.27;13.05;;;17.50;99.90;;;;;;5053713;28;20223;-76
2021/09/24 12:21:38;;;;;;;16.10;11.45;;;17.60;99.90;;;;;;5054819;28;20162;-77
2021/09/24 12:24:11;;;;;;;16.67;11.52;;;17.50;99.90;;;;;;5053385;28;20212;-77
2021/09/24 12:26:39;;;;;;;14.70;11.60;;;17.50;99.90;;;;;;5053434;28;20176;-76
2021/09/24 12:29:14;;;;;;;14.48;11.32;;;17.50;99.90;;;;;;5053937;28;20172;-77
2021/09/24 12:31:39;;;;;;;13.32;10.48;;;17.40;99.90;;;;;;5054650;28;20176;-78
2021/09/24 12:34:07;;;;;;;18.13;10.90;;;17.40;99.90;;;;;;5053310;28;20177;-78
2021/09/24 12:36:33;;;;;;;14.38;10.95;;;17.40;99.90;;;;;;5053365;28;20185;-81
2021/09/24 12:39:16;;;;;;;12.27;9.50;;;17.30;99.90;;;;;;5054527;28;20173;-75
2021/09/24 12:41:43;;;;;;;13.10;10.30;;;17.30;99.90;;;;;;5053297;28;20173;-76
2021/09/24 12:44:10;;;;;;;13.30;9.10;;;17.30;99.90;;;;;;5054319;28;20250;-76
2021/09/24 12:46:49;;;;;;;16.58;9.73;;;17.30;99.90;;;;;;5054395;28;20165;-76
2021/09/24 12:49:16;;;;;;;13.05;9.15;;;17.30;99.90;;;;;;5054573;28;20189;-77
2021/09/24 12:51:43;;;;;;;10.65;8.55;;;17.30;99.90;;;;;;5054283;28;20169;-78
2021/09/24 12:54:12;;;;;;;16.27;9.55;;;17.30;99.90;;;;;;5054248;28;20169;-78
2021/09/24 12:56:39;;;;;;;18.02;9.60;;;17.20;99.90;;;;;;5052912;28;20176;-84
2021/09/24 12:59:08;;;;;;;12.50;8.98;;;17.20;99.90;;;;;;5054083;28;20259;-83
2021/09/24 13:01:36;;;;;;;12.68;9.07;;;17.20;99.90;;;;;;5054147;28;20173;-84
2021/09/24 13:04:02;;;;;;;11.35;8.63;;;17.10;99.90;;;;;;5053851;28;20738;-83
2021/09/24 13:06:28;;;;;;;10.85;8.20;;;17.10;99.90;;;;;;5052769;28;20283;-79
2021/09/24 13:08:57;;;;;;;15.77;8.38;;;17.20;99.90;;;;;;5053921;28;20279;-79
2021/09/24 13:11:29;;;;;;;13.27;8.70;;;17.20;99.90;;;;;;5053819;28;20222;-78
2021/09/24 13:13:57;;;;;;;12.15;8.02;;;17.30;99.90;;;;;;5053874;28;20227;-74
2021/09/24 13:16:24;;;;;;;8.77;7.88;;;17.40;99.90;;;;;;5053857;28;20177;-74
2021/09/24 13:18:52;;;;;;;10.63;7.35;;;17.50;99.90;;;;;;5053789;28;20200;-74
2021/09/24 13:21:20;;;;;;;12.38;7.82;;;17.50;99.90;;;;;;5053639;28;20177;-74
2021/09/24 13:23:49;;;;;;;11.48;7.25;;;17.50;99.90;;;;;;5053605;28;20692;-73
2021/09/24 13:26:17;;;;;;;10.02;8.02;;;17.50;99.90;;;;;;5053640;28;20223;-73
2021/09/24 13:28:44;;;;;;;10.60;7.68;;;17.50;99.90;;;;;;5053648;28;20626;-79
2021/09/24 13:31:10;;;;;;;9.55;6.55;;;17.60;99.90;;;;;;5053616;28;20256;-77
2021/09/24 13:33:35;;;;;;;12.43;6.78;;;17.70;99.90;;;;;;5053583;28;20203;-78
2021/09/24 13:36:03;;;;;;;7.65;6.82;;;17.80;99.90;;;;;;5053537;28;20193;-78
2021/09/24 13:38:28;;;;;;;13.07;6.80;;;17.90;99.90;;;;;;5053214;28;20688;-78
2021/09/24 13:40:54;;;;;;;12.15;6.75;;;17.80;99.90;;;;;;5052245;28;20173;-79
2021/09/24 13:43:19;;;;;;;12.43;6.68;;;17.90;99.90;;;;;;5053515;28;20582;-78
2021/09/24 13:45:45;;;;;;;9.88;6.32;;;18.00;99.90;;;;;;5053295;28;20204;-79
2021/09/24 13:48:11;;;;;;;6.40;5.78;;;17.90;99.90;;;;;;5053407;28;20165;-76
2021/09/24 13:50:37;;;;;;;9.88;6.43;;;17.90;99.90;;;;;;5053308;28;20168;-76
2021/09/24 13:53:05;;;;;;;6.88;6.28;;;17.80;99.90;;;;;;5052127;28;20551;-76
2021/09/24 13:55:34;;;;;;;7.10;5.90;;;17.70;99.90;;;;;;5053535;28;20503;-75
2021/09/24 13:58:00;;;;;;;7.03;5.75;;;17.60;99.90;;;;;;5052232;28;20550;-75
2021/09/24 14:00:26;;;;;;;7.22;6.20;;;17.60;99.90;;;;;;5052352;28;20173;-76
2021/09/24 14:02:51;;;;;;;5.47;4.97;;;17.50;99.90;;;;;;5052287;28;20186;-77
2021/09/24 14:05:17;;;;;;;7.63;5.40;;;17.50;99.90;;;;;;5053152;28;20239;-79
2021/09/24 14:07:43;;;;;;;6.18;5.22;;;17.40;99.90;;;;;;5053377;28;20173;-80
2021/09/24 14:10:10;;;;;;;5.40;5.03;;;17.40;99.90;;;;;;5053460;28;20222;-78
2021/09/24 14:12:36;;;;;;;7.97;5.70;;;17.30;99.90;;;;;;5053424;28;20169;-77
2021/09/24 14:15:03;;;;;;;5.18;4.57;;;17.30;99.90;;;;;;5053146;28;20169;-78
2021/09/24 14:17:28;;;;;;;6.22;4.78;;;17.30;99.90;;;;;;5053634;28;20207;-78
2021/09/24 14:19:54;;;;;;;10.80;5.00;;;17.40;99.90;;;;;;5053242;28;20200;-78
2021/09/24 14:22:20;;;;;;;6.05;4.82;;;17.50;99.90;;;;;;5051939;28;20180;-78
2021/09/24 14:24:46;;;;;;;7.00;4.05;;;17.50;99.90;;;;;;5053083;28;20201;-78
2021/09/24 14:27:12;;;;;;;5.88;5.22;;;17.50;99.90;;;;;;5053176;28;20528;-78
2021/09/24 14:29:37;;;;;;;6.40;4.97;;;17.50;99.90;;;;;;5053068;28;20165;-77
2021/09/24 14:32:09;;;;;;;8.00;4.30;;;17.50;99.90;;;;;;5053143;28;20269;-72
2021/09/24 14:34:36;;;;;;;7.15;4.47;;;17.50;99.90;;;;;;5052954;28;20173;-72
2021/09/24 14:37:02;;;;;;;9.43;4.97;;;17.50;99.90;;;;;;5052929;28;20176;-73
2021/09/24 14:39:28;;;;;;;5.55;4.78;;;17.50;99.90;;;;;;5053011;28;20197;-72
2021/09/24 14:41:54;;;;;;;8.38;4.20;;;17.40;99.90;;;;;;5053156;28;20258;-73
2021/09/24 14:44:20;;;;;;;4.68;3.92;;;17.40;99.90;;;;;;5053082;28;20666;-72
2021/09/24 14:46:46;;;;;;;6.10;4.43;;;17.40;99.90;;;;;;5053140;28;20161;-73
2021/09/24 15:26:42;;;;;;;8.25;5.03;;;18.10;99.90;;;;;;5090929;27;20533;-73
2021/09/24 15:29:08;;;;;;;4.93;4.53;;;17.00;99.90;;;;;;5090839;28;20202;-73
2021/09/24 15:31:33;;;;;;;6.40;5.03;;;17.00;99.90;;;;;;5090801;28;20168;-73
2021/09/24 15:33:59;;;;;;;5.80;5.30;;;17.10;99.90;;;;;;5090644;28;20168;-73
2021/09/24 15:36:25;;;;;;;5.85;5.20;;;17.10;99.90;;;;;;5090762;28;20172;-73
2021/09/24 15:38:50;;;;;;;6.88;5.45;;;17.20;99.90;;;;;;5090716;28;20577;-73
2021/09/24 16:08:35;;;;;;;9.60;6.53;;;17.20;99.90;;;;;;5090912;27;20537;-72
2021/09/24 16:11:01;;;;;;;5.75;5.30;;;17.20;99.90;;;;;;5090868;28;20216;-72
2021/09/24 16:13:27;;;;;;;7.40;5.30;;;17.20;99.90;;;;;;5090857;28;20203;-73
2021/09/24 16:15:53;;;;;;;7.00;5.82;;;17.30;99.90;;;;;;5090851;28;20167;-73
2021/09/24 16:18:18;;;;;;;8.85;5.22;;;17.30;99.90;;;;;;5089464;28;20655;-73
2021/09/24 16:20:44;;;;;;;7.88;4.80;;;17.50;99.90;;;;;;5090771;28;20724;-73
2021/09/24 16:23:09;;;;;;;5.07;4.68;;;17.60;99.90;;;;;;5090594;28;20167;-73
2021/09/24 16:25:35;;;;;;;7.93;5.25;;;17.70;99.90;;;;;;5090578;28;20179;-73
2021/09/24 16:28:01;;;;;;;7.28;5.30;;;17.90;99.90;;;;;;5089165;28;20199;-73
2021/09/24 16:30:28;;;;;;;6.25;5.03;;;18.20;99.90;;;;;;5090588;28;20164;-73
2021/09/24 16:32:54;;;;;;;8.77;5.35;;;18.30;99.90;;;;;;5090482;28;20160;-73
2021/09/24 16:35:20;;;;;;;4.95;4.45;;;18.40;99.90;;;;;;5090422;28;20172;-73
2021/09/24 16:37:45;;;;;;;7.00;4.88;;;18.60;99.90;;;;;;5090302;28;20172;-72
2021/09/24 16:40:13;;;;;;;4.90;4.50;;;18.60;99.90;;;;;;5090358;28;20167;-73
2021/09/24 16:42:39;;;;;;;6.38;4.78;;;18.60;99.90;;;;;;5090262;28;20680;-73
2021/09/24 16:45:07;;;;;;;5.15;4.75;;;18.60;99.90;;;;;;5090146;28;20596;-73
2021/09/24 16:47:33;;;;;;;5.78;4.20;;;18.50;99.90;;;;;;5090060;28;20284;-73
2021/09/24 16:49:58;;;;;;;6.40;4.78;;;18.40;99.90;;;;;;5090105;28;20573;-73
2021/09/24 16:52:24;;;;;;;6.70;4.53;;;18.30;99.90;;;;;;5090068;28;20232;-73
2021/09/24 16:54:49;;;;;;;8.98;4.13;;;18.30;99.90;;;;;;5090082;28;20190;-73
2021/09/24 16:57:15;;;;;;;6.57;4.10;;;18.10;99.90;;;;;;5090050;28;20172;-73
2021/09/24 16:59:41;;;;;;;7.35;4.50;;;17.90;99.90;;;;;;5089974;28;20605;-73
2021/09/24 17:02:07;;;;;;;6.05;4.68;;;17.80;99.90;;;;;;5089882;28;20651;-73
2021/09/24 17:04:32;;;;;;;5.60;4.70;;;17.70;99.90;;;;;;5089794;28;20172;-73
2021/09/24 17:06:58;;;;;;;7.15;4.45;;;17.60;99.90;;;;;;5089551;28;20261;-73
2021/09/24 17:09:24;;;;;;;5.20;4.90;;;17.50;99.90;;;;;;5089775;28;20182;-73
2021/09/24 17:11:50;;;;;;;10.35;5.10;;;17.40;99.90;;;;;;5088515;28;20176;-73
2021/09/24 17:14:15;;;;;;;9.85;5.43;;;17.20;99.90;;;;;;5089686;28;20221;-73
2021/09/24 17:16:41;;;;;;;8.55;5.00;;;17.10;99.90;;;;;;5089603;28;20174;-73
2021/09/24 17:19:07;;;;;;;6.57;4.35;;;17.00;99.90;;;;;;5080806;28;20176;-73
2021/09/24 17:21:32;;;;;;;5.38;4.40;;;17.00;99.90;;;;;;5076055;28;20175;-73
